PWSweather.com
Personal Weather Stations
Station Observations
HLT9876
Houston Levee Trace, Germantown, TN 38139

Houston Levee TraceGermantown, TN 38139

Lat: 35.0702, Lon: -89.7363

Elevation: 353

Station Type: Davis Vantage Pro2

http://mid-southweather.com/index.html

Latest ConditionsUpdated 9:37:49 AM CST Tuesday, Jan 16, 2018
Currently Today's Max Today's Min Today's Average
Temperature 14.5°F-9.7°C 26.5°F-3.1°C 14.4°F-9.8°C 17.9°F-7.8°C
Dew Point 7.5°F-13.6°C 23.7°F-4.6°C 7.5°F-13.6°C 14.2°F-9.9°C
Winds 8.0 mph NNE12.9 kmh NNE 13.0 mph N20.9 kmh N - 5.9 mph 9.5 kmh
Wind Gusts 11.0 mph17.7 kmh 20.0 mph32.2 kmh - -
Humidity 73% 89% 73% 85%
Pressure 30.68 in1038.9 mb 30.68 in1038.9 mb 30.48 in1032.2 mb -
Hour Temp Dew Point Humidity Winds Wind Gusts Pressure Precip Precip Rate Daily Precip Total
09:37 AM 14.5°F-9.7°C 7.5°F-13.6°C 73% 8.0 mph NNE12.9 kmh NNE 11.0 mph17.7 kmh 30.68 in1038.9 mb 0.00 in0.0 mm 0.00 in0.0 mm 0.00 in0.0 mm
09:32 AM 14.8°F-9.6°C 8.0°F-13.3°C 74% 6.0 mph N9.7 kmh N 12.0 mph19.3 kmh 30.68 in1038.9 mb 0.00 in0.0 mm 0.00 in0.0 mm 0.00 in0.0 mm
09:27 AM 14.9°F-9.5°C 8.1°F-13.3°C 74% 4.0 mph NNW6.4 kmh NNW 12.0 mph19.3 kmh 30.68 in1038.9 mb 0.00 in0.0 mm 0.00 in0.0 mm 0.00 in0.0 mm
09:22 AM 14.8°F-9.6°C 8.0°F-13.3°C 74% 4.0 mph NNE6.4 kmh NNE 14.0 mph22.5 kmh 30.68 in1038.9 mb 0.00 in0.0 mm 0.00 in0.0 mm 0.00 in0.0 mm
09:17 AM 14.8°F-9.6°C 8.0°F-13.3°C 74% 5.0 mph N8.0 kmh N 14.0 mph22.5 kmh 30.67 in1038.6 mb 0.00 in0.0 mm 0.00 in0.0 mm 0.00 in0.0 mm
09:12 AM 14.8°F-9.6°C 7.7°F-13.5°C 73% 6.0 mph NE9.7 kmh NE 14.0 mph22.5 kmh 30.68 in1038.9 mb 0.00 in0.0 mm 0.00 in0.0 mm 0.00 in0.0 mm
09:07 AM 15.0°F-9.4°C 8.2°F-13.2°C 74% 8.0 mph N12.9 kmh N 14.0 mph22.5 kmh 30.68 in1038.9 mb 0.00 in0.0 mm 0.00 in0.0 mm 0.00 in0.0 mm
09:02 AM 15.1°F-9.4°C 8.3°F-13.2°C 74% 2.0 mph NNE3.2 kmh NNE 12.0 mph19.3 kmh 30.67 in1038.6 mb 0.00 in0.0 mm 0.00 in0.0 mm 0.00 in0.0 mm
08:57 AM 15.3°F-9.3°C 8.8°F-12.9°C 75% 8.0 mph N12.9 kmh N 12.0 mph19.3 kmh 30.67 in1038.6 mb 0.00 in0.0 mm 0.00 in0.0 mm 0.00 in0.0 mm
08:52 AM 15.4°F-9.2°C 9.2°F-12.7°C 76% 3.0 mph NNE4.8 kmh NNE 11.0 mph17.7 kmh 30.67 in1038.6 mb 0.00 in0.0 mm 0.00 in0.0 mm 0.00 in0.0 mm
08:47 AM 15.4°F-9.2°C 9.2°F-12.7°C 76% 9.0 mph NNE14.5 kmh NNE 10.0 mph16.1 kmh 30.66 in1038.3 mb 0.00 in0.0 mm 0.00 in0.0 mm 0.00 in0.0 mm
08:42 AM 15.3°F-9.3°C 9.4°F-12.6°C 77% 2.0 mph N3.2 kmh N 14.0 mph22.5 kmh 30.67 in1038.6 mb 0.00 in0.0 mm 0.00 in0.0 mm 0.00 in0.0 mm
08:37 AM 15.2°F-9.3°C 9.3°F-12.6°C 77% 5.0 mph N8.0 kmh N 14.0 mph22.5 kmh 30.66 in1038.3 mb 0.00 in0.0 mm 0.00 in0.0 mm 0.00 in0.0 mm
08:32 AM 15.1°F-9.4°C 8.9°F-12.8°C 76% 4.0 mph NNW6.4 kmh NNW 14.0 mph22.5 kmh 30.66 in1038.3 mb 0.00 in0.0 mm 0.00 in0.0 mm 0.00 in0.0 mm
08:27 AM 15.1°F-9.4°C 9.2°F-12.7°C 77% 11.0 mph 17.7 kmh 14.0 mph22.5 kmh 30.66 in1038.3 mb 0.00 in0.0 mm 0.00 in0.0 mm 0.00 in0.0 mm
08:22 AM 15.1°F-9.4°C 9.5°F-12.5°C 78% 6.0 mph N9.7 kmh N 10.0 mph16.1 kmh 30.66 in1038.3 mb 0.00 in0.0 mm 0.00 in0.0 mm 0.00 in0.0 mm
08:17 AM 15.0°F-9.4°C 9.7°F-12.4°C 79% 3.0 mph NNW4.8 kmh NNW 10.0 mph16.1 kmh 30.66 in1038.3 mb 0.00 in0.0 mm 0.00 in0.0 mm 0.00 in0.0 mm
08:12 AM 14.9°F-9.5°C 9.6°F-12.4°C 79% 3.0 mph N4.8 kmh N 10.0 mph16.1 kmh 30.65 in1037.9 mb 0.00 in0.0 mm 0.00 in0.0 mm 0.00 in0.0 mm
08:07 AM 14.8°F-9.6°C 10.0°F-12.2°C 81% 7.0 mph NNE11.3 kmh NNE 10.0 mph16.1 kmh 30.66 in1038.3 mb 0.00 in0.0 mm 0.00 in0.0 mm 0.00 in0.0 mm
08:02 AM 14.7°F-9.6°C 10.2°F-12.1°C 82% 4.0 mph NW6.4 kmh NW 10.0 mph16.1 kmh 30.66 in1038.3 mb 0.00 in0.0 mm 0.00 in0.0 mm 0.00 in0.0 mm
07:57 AM 14.6°F-9.7°C 10.7°F-11.8°C 84% 5.0 mph N8.0 kmh N 10.0 mph16.1 kmh 30.65 in1037.9 mb 0.00 in0.0 mm 0.00 in0.0 mm 0.00 in0.0 mm
07:52 AM 14.5°F-9.7°C 10.6°F-11.9°C 84% 4.0 mph NE6.4 kmh NE 11.0 mph17.7 kmh 30.66 in1038.3 mb 0.00 in0.0 mm 0.00 in0.0 mm 0.00 in0.0 mm
07:47 AM 14.5°F-9.7°C 10.6°F-11.9°C 84% 3.0 mph NNW4.8 kmh NNW 11.0 mph17.7 kmh 30.65 in1037.9 mb 0.00 in0.0 mm 0.00 in0.0 mm 0.00 in0.0 mm
07:42 AM 14.4°F-9.8°C 10.7°F-11.8°C 85% 4.0 mph N6.4 kmh N 11.0 mph17.7 kmh 30.66 in1038.3 mb 0.00 in0.0 mm 0.00 in0.0 mm 0.00 in0.0 mm
07:37 AM 14.4°F-9.8°C 10.7°F-11.8°C 85% 8.0 mph N12.9 kmh N 11.0 mph17.7 kmh 30.66 in1038.3 mb 0.00 in0.0 mm 0.00 in0.0 mm 0.00 in0.0 mm
07:32 AM 14.4°F-9.8°C 10.7°F-11.8°C 85% 6.0 mph 9.7 kmh 12.0 mph19.3 kmh 30.66 in1038.3 mb 0.00 in0.0 mm 0.00 in0.0 mm 0.00 in0.0 mm
07:27 AM 14.4°F-9.8°C 10.7°F-11.8°C 85% 5.0 mph 8.0 kmh 12.0 mph19.3 kmh 30.65 in1037.9 mb 0.00 in0.0 mm 0.00 in0.0 mm 0.00 in0.0 mm
07:22 AM 14.5°F-9.7°C 10.6°F-11.9°C 84% 6.0 mph N9.7 kmh N 12.0 mph19.3 kmh 30.65 in1037.9 mb 0.00 in0.0 mm 0.00 in0.0 mm 0.00 in0.0 mm
07:17 AM 14.5°F-9.7°C 10.6°F-11.9°C 84% 3.0 mph N4.8 kmh N 12.0 mph19.3 kmh 30.65 in1037.9 mb 0.00 in0.0 mm 0.00 in0.0 mm 0.00 in0.0 mm
07:12 AM 14.5°F-9.7°C 10.6°F-11.9°C 84% 1.0 mph N1.6 kmh N 15.0 mph24.1 kmh 30.65 in1037.9 mb 0.00 in0.0 mm 0.00 in0.0 mm 0.00 in0.0 mm
07:07 AM 14.4°F-9.8°C 10.5°F-11.9°C 84% 4.0 mph N6.4 kmh N 15.0 mph24.1 kmh 30.65 in1037.9 mb 0.00 in0.0 mm 0.00 in0.0 mm 0.00 in0.0 mm
07:02 AM 14.4°F-9.8°C 10.5°F-11.9°C 84% 10.0 mph NNE16.1 kmh NNE 15.0 mph24.1 kmh 30.64 in1037.6 mb 0.00 in0.0 mm 0.00 in0.0 mm 0.00 in0.0 mm
06:57 AM 14.4°F-9.8°C 10.5°F-11.9°C 84% 8.0 mph NW12.9 kmh NW 15.0 mph24.1 kmh 30.63 in1037.3 mb 0.00 in0.0 mm 0.00 in0.0 mm 0.00 in0.0 mm
06:52 AM 14.5°F-9.7°C 10.8°F-11.8°C 85% 9.0 mph NE14.5 kmh NE 14.0 mph22.5 kmh 30.64 in1037.6 mb 0.00 in0.0 mm 0.00 in0.0 mm 0.00 in0.0 mm
06:47 AM 14.6°F-9.7°C 10.9°F-11.7°C 85% 6.0 mph 9.7 kmh 14.0 mph22.5 kmh 30.64 in1037.6 mb 0.00 in0.0 mm 0.00 in0.0 mm 0.00 in0.0 mm
06:42 AM 14.8°F-9.6°C 11.6°F-11.3°C 87% 9.0 mph N14.5 kmh N 12.0 mph19.3 kmh 30.63 in1037.3 mb 0.00 in0.0 mm 0.00 in0.0 mm 0.00 in0.0 mm
06:37 AM 14.9°F-9.5°C 11.7°F-11.3°C 87% 8.0 mph 12.9 kmh 10.0 mph16.1 kmh 30.63 in1037.3 mb 0.00 in0.0 mm 0.00 in0.0 mm 0.00 in0.0 mm
06:32 AM 15.0°F-9.4°C 11.8°F-11.2°C 87% 8.0 mph N12.9 kmh N 9.0 mph14.5 kmh 30.62 in1036.9 mb 0.00 in0.0 mm 0.00 in0.0 mm 0.00 in0.0 mm
06:27 AM 14.9°F-9.5°C 11.7°F-11.3°C 87% 5.0 mph 8.0 kmh 9.0 mph14.5 kmh 30.62 in1036.9 mb 0.00 in0.0 mm 0.00 in0.0 mm 0.00 in0.0 mm
06:22 AM 14.9°F-9.5°C 11.7°F-11.3°C 87% 5.0 mph NNW8.0 kmh NNW 9.0 mph14.5 kmh 30.62 in1036.9 mb 0.00 in0.0 mm 0.00 in0.0 mm 0.00 in0.0 mm
06:17 AM 14.9°F-9.5°C 11.7°F-11.3°C 87% 4.0 mph N6.4 kmh N 16.0 mph25.7 kmh 30.61 in1036.6 mb 0.00 in0.0 mm 0.00 in0.0 mm 0.00 in0.0 mm
06:12 AM 15.0°F-9.4°C 11.8°F-11.2°C 87% 3.0 mph NNE4.8 kmh NNE 16.0 mph25.7 kmh 30.62 in1036.9 mb 0.00 in0.0 mm 0.00 in0.0 mm 0.00 in0.0 mm
06:07 AM 15.0°F-9.4°C 11.8°F-11.2°C 87% 5.0 mph N8.0 kmh N 16.0 mph25.7 kmh 30.62 in1036.9 mb 0.00 in0.0 mm 0.00 in0.0 mm 0.00 in0.0 mm
06:02 AM 15.0°F-9.4°C 11.8°F-11.2°C 87% 4.0 mph NNE6.4 kmh NNE 16.0 mph25.7 kmh 30.62 in1036.9 mb 0.00 in0.0 mm 0.00 in0.0 mm 0.00 in0.0 mm
05:57 AM 15.1°F-9.4°C 12.2°F-11.0°C 88% 8.0 mph N12.9 kmh N 14.0 mph22.5 kmh 30.62 in1036.9 mb 0.00 in0.0 mm 0.00 in0.0 mm 0.00 in0.0 mm
05:52 AM 15.2°F-9.3°C 12.3°F-10.9°C 88% 9.0 mph NNE14.5 kmh NNE 11.0 mph17.7 kmh 30.62 in1036.9 mb 0.00 in0.0 mm 0.00 in0.0 mm 0.00 in0.0 mm
05:47 AM 15.3°F-9.3°C 12.4°F-10.9°C 88% 6.0 mph N9.7 kmh N 11.0 mph17.7 kmh 30.61 in1036.6 mb 0.00 in0.0 mm 0.00 in0.0 mm 0.00 in0.0 mm
05:42 AM 15.4°F-9.2°C 12.5°F-10.8°C 88% 9.0 mph NNE14.5 kmh NNE 11.0 mph17.7 kmh 30.61 in1036.6 mb 0.00 in0.0 mm 0.00 in0.0 mm 0.00 in0.0 mm
05:37 AM 15.5°F-9.2°C 12.6°F-10.8°C 88% 8.0 mph 12.9 kmh 9.0 mph14.5 kmh 30.61 in1036.6 mb 0.00 in0.0 mm 0.00 in0.0 mm 0.00 in0.0 mm
05:32 AM 15.7°F-9.1°C 12.8°F-10.7°C 88% 3.0 mph NNE4.8 kmh NNE 10.0 mph16.1 kmh 30.60 in1036.2 mb 0.00 in0.0 mm 0.00 in0.0 mm 0.00 in0.0 mm
05:27 AM 15.9°F-8.9°C 13.0°F-10.6°C 88% 9.0 mph N14.5 kmh N 10.0 mph16.1 kmh 30.60 in1036.2 mb 0.00 in0.0 mm 0.00 in0.0 mm 0.00 in0.0 mm
05:22 AM 16.1°F-8.8°C 13.4°F-10.3°C 89% 5.0 mph N8.0 kmh N 11.0 mph17.7 kmh 30.60 in1036.2 mb 0.00 in0.0 mm 0.00 in0.0 mm 0.00 in0.0 mm
05:17 AM 16.1°F-8.8°C 13.2°F-10.4°C 88% 3.0 mph NW4.8 kmh NW 11.0 mph17.7 kmh 30.59 in1035.9 mb 0.00 in0.0 mm 0.00 in0.0 mm 0.00 in0.0 mm
05:12 AM 16.2°F-8.8°C 13.3°F-10.4°C 88% 8.0 mph N12.9 kmh N 12.0 mph19.3 kmh 30.59 in1035.9 mb 0.00 in0.0 mm 0.00 in0.0 mm 0.00 in0.0 mm
05:07 AM 16.2°F-8.8°C 13.3°F-10.4°C 88% 5.0 mph N8.0 kmh N 12.0 mph19.3 kmh 30.59 in1035.9 mb 0.00 in0.0 mm 0.00 in0.0 mm 0.00 in0.0 mm
05:02 AM 16.3°F-8.7°C 13.4°F-10.3°C 88% 2.0 mph NNW3.2 kmh NNW 13.0 mph20.9 kmh 30.59 in1035.9 mb 0.00 in0.0 mm 0.00 in0.0 mm 0.00 in0.0 mm
04:57 AM 16.4°F-8.7°C 13.5°F-10.3°C 88% 2.0 mph NNE3.2 kmh NNE 13.0 mph20.9 kmh 30.59 in1035.9 mb 0.00 in0.0 mm 0.00 in0.0 mm 0.00 in0.0 mm
04:52 AM 16.6°F-8.6°C 13.4°F-10.3°C 87% 5.0 mph NNE8.0 kmh NNE 13.0 mph20.9 kmh 30.59 in1035.9 mb 0.00 in0.0 mm 0.00 in0.0 mm 0.00 in0.0 mm
04:47 AM 16.8°F-8.4°C 13.6°F-10.2°C 87% 10.0 mph N16.1 kmh N 13.0 mph20.9 kmh 30.59 in1035.9 mb 0.00 in0.0 mm 0.00 in0.0 mm 0.00 in0.0 mm
04:42 AM 17.0°F-8.3°C 14.1°F-9.9°C 88% 6.0 mph NNW9.7 kmh NNW 13.0 mph20.9 kmh 30.59 in1035.9 mb 0.00 in0.0 mm 0.00 in0.0 mm 0.00 in0.0 mm
04:37 AM 17.3°F-8.2°C 14.4°F-9.8°C 88% 4.0 mph NNE6.4 kmh NNE 13.0 mph20.9 kmh 30.59 in1035.9 mb 0.00 in0.0 mm 0.00 in0.0 mm 0.00 in0.0 mm
04:32 AM 17.5°F-8.1°C 14.8°F-9.6°C 89% 2.0 mph 3.2 kmh 9.0 mph14.5 kmh 30.59 in1035.9 mb 0.00 in0.0 mm 0.00 in0.0 mm 0.00 in0.0 mm
04:27 AM 17.6°F-8.0°C 14.9°F-9.5°C 89% 5.0 mph NNW8.0 kmh NNW 9.0 mph14.5 kmh 30.59 in1035.9 mb 0.00 in0.0 mm 0.00 in0.0 mm 0.00 in0.0 mm
04:22 AM 17.6°F-8.0°C 14.9°F-9.5°C 89% 5.0 mph NNW8.0 kmh NNW 9.0 mph14.5 kmh 30.59 in1035.9 mb 0.00 in0.0 mm 0.00 in0.0 mm 0.00 in0.0 mm
04:17 AM 17.5°F-8.1°C 14.8°F-9.6°C 89% 3.0 mph NNE4.8 kmh NNE 11.0 mph17.7 kmh 30.59 in1035.9 mb 0.00 in0.0 mm 0.00 in0.0 mm 0.00 in0.0 mm
04:12 AM 17.5°F-8.1°C 14.8°F-9.6°C 89% 4.0 mph N6.4 kmh N 11.0 mph17.7 kmh 30.58 in1035.6 mb 0.00 in0.0 mm 0.00 in0.0 mm 0.00 in0.0 mm
04:07 AM 17.6°F-8.0°C 14.7°F-9.6°C 88% 5.0 mph N8.0 kmh N 15.0 mph24.1 kmh 30.58 in1035.6 mb 0.00 in0.0 mm 0.00 in0.0 mm 0.00 in0.0 mm
04:02 AM 17.6°F-8.0°C 14.7°F-9.6°C 88% 8.0 mph NNW12.9 kmh NNW 15.0 mph24.1 kmh 30.58 in1035.6 mb 0.00 in0.0 mm 0.00 in0.0 mm 0.00 in0.0 mm
03:57 AM 17.7°F-7.9°C 14.8°F-9.6°C 88% 9.0 mph NE14.5 kmh NE 15.0 mph24.1 kmh 30.58 in1035.6 mb 0.00 in0.0 mm 0.00 in0.0 mm 0.00 in0.0 mm
03:52 AM 17.8°F-7.9°C 14.9°F-9.5°C 88% 8.0 mph NE12.9 kmh NE 15.0 mph24.1 kmh 30.58 in1035.6 mb 0.00 in0.0 mm 0.00 in0.0 mm 0.00 in0.0 mm
03:47 AM 17.9°F-7.8°C 15.0°F-9.4°C 88% 8.0 mph NNW12.9 kmh NNW 12.0 mph19.3 kmh 30.57 in1035.2 mb 0.00 in0.0 mm 0.00 in0.0 mm 0.00 in0.0 mm
03:42 AM 18.1°F-7.7°C 15.2°F-9.3°C 88% 9.0 mph N14.5 kmh N 13.0 mph20.9 kmh 30.57 in1035.2 mb 0.00 in0.0 mm 0.00 in0.0 mm 0.00 in0.0 mm
03:37 AM 18.2°F-7.7°C 15.3°F-9.3°C 88% 4.0 mph NNE6.4 kmh NNE 13.0 mph20.9 kmh 30.57 in1035.2 mb 0.00 in0.0 mm 0.00 in0.0 mm 0.00 in0.0 mm
03:32 AM 18.4°F-7.6°C 15.5°F-9.2°C 88% 3.0 mph N4.8 kmh N 13.0 mph20.9 kmh 30.58 in1035.6 mb 0.00 in0.0 mm 0.00 in0.0 mm 0.00 in0.0 mm
03:27 AM 18.6°F-7.4°C 15.4°F-9.2°C 87% 5.0 mph NE8.0 kmh NE 13.0 mph20.9 kmh 30.58 in1035.6 mb 0.00 in0.0 mm 0.00 in0.0 mm 0.00 in0.0 mm
03:22 AM 18.9°F-7.3°C 15.9°F-8.9°C 88% 8.0 mph N12.9 kmh N 12.0 mph19.3 kmh 30.57 in1035.2 mb 0.00 in0.0 mm 0.00 in0.0 mm 0.00 in0.0 mm
03:17 AM 19.1°F-7.2°C 16.1°F-8.8°C 88% 3.0 mph NW4.8 kmh NW 10.0 mph16.1 kmh 30.57 in1035.2 mb 0.00 in0.0 mm 0.00 in0.0 mm 0.00 in0.0 mm
03:12 AM 19.3°F-7.1°C 16.3°F-8.7°C 88% 5.0 mph N8.0 kmh N 10.0 mph16.1 kmh 30.57 in1035.2 mb 0.00 in0.0 mm 0.00 in0.0 mm 0.00 in0.0 mm
03:07 AM 19.3°F-7.1°C 16.1°F-8.8°C 87% 5.0 mph 8.0 kmh 14.0 mph22.5 kmh 30.56 in1034.9 mb 0.00 in0.0 mm 0.00 in0.0 mm 0.00 in0.0 mm
03:02 AM 19.3°F-7.1°C 16.1°F-8.8°C 87% 5.0 mph 8.0 kmh 14.0 mph22.5 kmh 30.56 in1034.9 mb 0.00 in0.0 mm 0.00 in0.0 mm 0.00 in0.0 mm
02:57 AM 19.3°F-7.1°C 15.8°F-9.0°C 86% 8.0 mph N12.9 kmh N 14.0 mph22.5 kmh 30.56 in1034.9 mb 0.00 in0.0 mm 0.00 in0.0 mm 0.00 in0.0 mm
02:52 AM 19.4°F-7.0°C 15.9°F-8.9°C 86% 4.0 mph N6.4 kmh N 14.0 mph22.5 kmh 30.56 in1034.9 mb 0.00 in0.0 mm 0.00 in0.0 mm 0.00 in0.0 mm
02:47 AM 19.4°F-7.0°C 16.2°F-8.8°C 87% 4.0 mph N6.4 kmh N 11.0 mph17.7 kmh 30.55 in1034.5 mb 0.00 in0.0 mm 0.00 in0.0 mm 0.00 in0.0 mm
02:42 AM 19.4°F-7.0°C 16.2°F-8.8°C 87% 5.0 mph 8.0 kmh 11.0 mph17.7 kmh 30.55 in1034.5 mb 0.00 in0.0 mm 0.00 in0.0 mm 0.00 in0.0 mm
02:37 AM 19.5°F-6.9°C 16.0°F-8.9°C 86% 4.0 mph NNE6.4 kmh NNE 18.0 mph29.0 kmh 30.55 in1034.5 mb 0.00 in0.0 mm 0.00 in0.0 mm 0.00 in0.0 mm
02:32 AM 19.5°F-6.9°C 15.7°F-9.1°C 85% 5.0 mph NNE8.0 kmh NNE 18.0 mph29.0 kmh 30.55 in1034.5 mb 0.00 in0.0 mm 0.00 in0.0 mm 0.00 in0.0 mm
02:27 AM 19.7°F-6.8°C 15.7°F-9.1°C 84% 9.0 mph N14.5 kmh N 18.0 mph29.0 kmh 30.54 in1034.2 mb 0.00 in0.0 mm 0.00 in0.0 mm 0.00 in0.0 mm
02:22 AM 19.8°F-6.8°C 15.8°F-9.0°C 84% 6.0 mph 9.7 kmh 18.0 mph29.0 kmh 30.54 in1034.2 mb 0.00 in0.0 mm 0.00 in0.0 mm 0.00 in0.0 mm
02:17 AM 20.0°F-6.7°C 16.0°F-8.9°C 84% 8.0 mph NNE12.9 kmh NNE 18.0 mph29.0 kmh 30.54 in1034.2 mb 0.00 in0.0 mm 0.00 in0.0 mm 0.00 in0.0 mm
02:12 AM 20.3°F-6.5°C 16.3°F-8.7°C 84% 10.0 mph NE16.1 kmh NE 18.0 mph29.0 kmh 30.54 in1034.2 mb 0.00 in0.0 mm 0.00 in0.0 mm 0.00 in0.0 mm
02:07 AM 20.6°F-6.3°C 17.1°F-8.3°C 86% 7.0 mph NE11.3 kmh NE 16.0 mph25.7 kmh 30.54 in1034.2 mb 0.00 in0.0 mm 0.00 in0.0 mm 0.00 in0.0 mm
02:02 AM 20.7°F-6.3°C 16.9°F-8.4°C 85% 4.0 mph N6.4 kmh N 17.0 mph27.4 kmh 30.54 in1034.2 mb 0.00 in0.0 mm 0.00 in0.0 mm 0.00 in0.0 mm
01:57 AM 21.1°F-6.1°C 17.3°F-8.2°C 85% 5.0 mph N8.0 kmh N 17.0 mph27.4 kmh 30.54 in1034.2 mb 0.00 in0.0 mm 0.00 in0.0 mm 0.00 in0.0 mm
01:52 AM 21.4°F-5.9°C 17.6°F-8.0°C 85% 13.0 mph N20.9 kmh N 17.0 mph27.4 kmh 30.53 in1033.9 mb 0.00 in0.0 mm 0.00 in0.0 mm 0.00 in0.0 mm
01:47 AM 21.8°F-5.7°C 18.3°F-7.6°C 86% 9.0 mph NNE14.5 kmh NNE 17.0 mph27.4 kmh 30.52 in1033.5 mb 0.00 in0.0 mm 0.00 in0.0 mm 0.00 in0.0 mm
01:42 AM 22.1°F-5.5°C 18.8°F-7.3°C 87% 5.0 mph ENE8.0 kmh ENE 11.0 mph17.7 kmh 30.52 in1033.5 mb 0.00 in0.0 mm 0.00 in0.0 mm 0.00 in0.0 mm
01:37 AM 22.3°F-5.4°C 19.0°F-7.2°C 87% 2.0 mph NNE3.2 kmh NNE 11.0 mph17.7 kmh 30.53 in1033.9 mb 0.00 in0.0 mm 0.00 in0.0 mm 0.00 in0.0 mm
01:32 AM 22.5°F-5.3°C 19.2°F-7.1°C 87% 5.0 mph N8.0 kmh N 11.0 mph17.7 kmh 30.53 in1033.9 mb 0.00 in0.0 mm 0.00 in0.0 mm 0.00 in0.0 mm
01:27 AM 22.7°F-5.2°C 19.7°F-6.8°C 88% 8.0 mph N12.9 kmh N 11.0 mph17.7 kmh 30.53 in1033.9 mb 0.00 in0.0 mm 0.00 in0.0 mm 0.00 in0.0 mm
01:22 AM 22.9°F-5.1°C 19.9°F-6.7°C 88% 6.0 mph NNW9.7 kmh NNW 16.0 mph25.7 kmh 30.53 in1033.9 mb 0.00 in0.0 mm 0.00 in0.0 mm 0.00 in0.0 mm
01:17 AM 23.1°F-4.9°C 20.1°F-6.6°C 88% 5.0 mph N8.0 kmh N 16.0 mph25.7 kmh 30.53 in1033.9 mb 0.00 in0.0 mm 0.00 in0.0 mm 0.00 in0.0 mm
01:12 AM 23.3°F-4.8°C 20.0°F-6.7°C 87% 8.0 mph NNE12.9 kmh NNE 16.0 mph25.7 kmh 30.52 in1033.5 mb 0.00 in0.0 mm 0.00 in0.0 mm 0.00 in0.0 mm
01:07 AM 23.4°F-4.8°C 19.8°F-6.8°C 86% 9.0 mph 14.5 kmh 16.0 mph25.7 kmh 30.52 in1033.5 mb 0.00 in0.0 mm 0.00 in0.0 mm 0.00 in0.0 mm
01:02 AM 23.6°F-4.7°C 20.3°F-6.5°C 87% 3.0 mph NNE4.8 kmh NNE 14.0 mph22.5 kmh 30.52 in1033.5 mb 0.00 in0.0 mm 0.00 in0.0 mm 0.00 in0.0 mm
12:57 AM 23.8°F-4.6°C 20.2°F-6.6°C 86% 10.0 mph ENE16.1 kmh ENE 14.0 mph22.5 kmh 30.51 in1033.2 mb 0.00 in0.0 mm 0.00 in0.0 mm 0.00 in0.0 mm
12:52 AM 24.0°F-4.4°C 20.4°F-6.4°C 86% 5.0 mph NNW8.0 kmh NNW 15.0 mph24.1 kmh 30.51 in1033.2 mb 0.00 in0.0 mm 0.00 in0.0 mm 0.00 in0.0 mm
12:47 AM 24.2°F-4.3°C 20.4°F-6.4°C 85% 12.0 mph NNE19.3 kmh NNE 15.0 mph24.1 kmh 30.51 in1033.2 mb 0.00 in0.0 mm 0.00 in0.0 mm 0.00 in0.0 mm
12:42 AM 24.4°F-4.2°C 20.6°F-6.3°C 85% 13.0 mph N20.9 kmh N 20.0 mph32.2 kmh 30.51 in1033.2 mb 0.00 in0.0 mm 0.00 in0.0 mm 0.00 in0.0 mm
12:37 AM 24.7°F-4.1°C 21.1°F-6.1°C 86% 5.0 mph 8.0 kmh 20.0 mph32.2 kmh 30.51 in1033.2 mb 0.00 in0.0 mm 0.00 in0.0 mm 0.00 in0.0 mm
12:32 AM 25.1°F-3.8°C 21.2°F-6.0°C 85% 3.0 mph N4.8 kmh N 20.0 mph32.2 kmh 30.50 in1032.8 mb 0.00 in0.0 mm 0.00 in0.0 mm 0.00 in0.0 mm
12:27 AM 25.6°F-3.6°C 22.3°F-5.4°C 87% 10.0 mph N16.1 kmh N 20.0 mph32.2 kmh 30.50 in1032.8 mb 0.00 in0.0 mm 0.00 in0.0 mm 0.00 in0.0 mm
12:22 AM 26.0°F-3.3°C 22.7°F-5.2°C 87% 5.0 mph NNE8.0 kmh NNE 13.0 mph20.9 kmh 30.50 in1032.8 mb 0.00 in0.0 mm 0.00 in0.0 mm 0.00 in0.0 mm
12:17 AM 26.2°F-3.2°C 23.1°F-4.9°C 88% 3.0 mph NW4.8 kmh NW 14.0 mph22.5 kmh 30.50 in1032.8 mb 0.00 in0.0 mm 0.00 in0.0 mm 0.00 in0.0 mm
12:12 AM 26.3°F-3.2°C 23.5°F-4.7°C 89% 9.0 mph NW14.5 kmh NW 14.0 mph22.5 kmh 30.50 in1032.8 mb 0.00 in0.0 mm 0.00 in0.0 mm 0.00 in0.0 mm
12:07 AM 26.4°F-3.1°C 23.6°F-4.7°C 89% 6.0 mph NW9.7 kmh NW 14.0 mph22.5 kmh 30.49 in1032.5 mb 0.00 in0.0 mm 0.00 in0.0 mm 0.00 in0.0 mm
12:02 AM 26.5°F-3.1°C 23.7°F-4.6°C 89% 6.0 mph N9.7 kmh N 14.0 mph22.5 kmh 30.48 in1032.2 mb 0.00 in0.0 mm 0.00 in0.0 mm 0.00 in0.0 mm